sensor_id;sensor_type;location;lat;lon;timestamp;P1;durP1;ratioP1;P2;durP2;ratioP2
359;SDS011;168;48.872;9.226;2023-04-24T00:01:59;1.27;;;1.17;;
359;SDS011;168;48.872;9.226;2023-04-24T00:04:28;1.57;;;1.27;;
359;SDS011;168;48.872;9.226;2023-04-24T00:06:57;1.10;;;1.10;;
359;SDS011;168;48.872;9.226;2023-04-24T00:09:25;1.73;;;1.30;;
359;SDS011;168;48.872;9.226;2023-04-24T00:11:52;1.13;;;1.00;;
359;SDS011;168;48.872;9.226;2023-04-24T00:14:21;1.17;;;0.80;;
359;SDS011;168;48.872;9.226;2023-04-24T00:16:48;1.27;;;1.17;;
359;SDS011;168;48.872;9.226;2023-04-24T00:19:16;1.33;;;1.10;;
359;SDS011;168;48.872;9.226;2023-04-24T00:21:48;1.17;;;1.00;;
359;SDS011;168;48.872;9.226;2023-04-24T00:24:16;3.60;;;1.23;;
359;SDS011;168;48.872;9.226;2023-04-24T00:26:43;1.17;;;0.90;;
359;SDS011;168;48.872;9.226;2023-04-24T00:29:11;3.43;;;1.00;;
359;SDS011;168;48.872;9.226;2023-04-24T00:31:38;1.40;;;1.30;;
359;SDS011;168;48.872;9.226;2023-04-24T00:34:06;1.33;;;0.83;;
359;SDS011;168;48.872;9.226;2023-04-24T00:36:33;1.00;;;0.90;;
359;SDS011;168;48.872;9.226;2023-04-24T00:39:05;1.70;;;0.90;;
359;SDS011;168;48.872;9.226;2023-04-24T00:41:34;1.03;;;0.93;;
359;SDS011;168;48.872;9.226;2023-04-24T00:44:01;2.90;;;1.43;;
359;SDS011;168;48.872;9.226;2023-04-24T00:46:29;2.10;;;0.80;;
359;SDS011;168;48.872;9.226;2023-04-24T00:48:58;2.70;;;1.00;;
359;SDS011;168;48.872;9.226;2023-04-24T00:51:26;2.00;;;0.90;;
359;SDS011;168;48.872;9.226;2023-04-24T00:53:53;1.90;;;1.30;;
359;SDS011;168;48.872;9.226;2023-04-24T00:56:22;0.90;;;0.90;;
359;SDS011;168;48.872;9.226;2023-04-24T00:58:50;1.57;;;0.90;;
359;SDS011;168;48.872;9.226;2023-04-24T01:01:18;0.90;;;0.83;;
359;SDS011;168;48.872;9.226;2023-04-24T01:03:47;1.07;;;0.90;;
359;SDS011;168;48.872;9.226;2023-04-24T01:06:17;0.80;;;0.80;;
359;SDS011;168;48.872;9.226;2023-04-24T01:08:46;1.60;;;0.87;;
359;SDS011;168;48.872;9.226;2023-04-24T01:11:14;0.97;;;0.97;;
359;SDS011;168;48.872;9.226;2023-04-24T01:13:43;2.37;;;1.20;;
359;SDS011;168;48.872;9.226;2023-04-24T01:16:10;1.53;;;1.10;;
359;SDS011;168;48.872;9.226;2023-04-24T01:18:38;1.43;;;0.93;;
359;SDS011;168;48.872;9.226;2023-04-24T01:21:05;1.50;;;0.90;;
359;SDS011;168;48.872;9.226;2023-04-24T01:23:36;0.70;;;0.70;;
359;SDS011;168;48.872;9.226;2023-04-24T01:26:03;2.30;;;0.90;;
359;SDS011;168;48.872;9.226;2023-04-24T01:28:31;1.70;;;1.10;;
359;SDS011;168;48.872;9.226;2023-04-24T01:30:58;1.30;;;0.90;;
359;SDS011;168;48.872;9.226;2023-04-24T01:33:26;2.13;;;1.10;;
359;SDS011;168;48.872;9.226;2023-04-24T01:35:53;0.90;;;0.70;;
359;SDS011;168;48.872;9.226;2023-04-24T01:38:21;1.80;;;0.93;;
359;SDS011;168;48.872;9.226;2023-04-24T01:40:50;1.20;;;1.10;;
359;SDS011;168;48.872;9.226;2023-04-24T01:43:18;1.50;;;1.00;;
359;SDS011;168;48.872;9.226;2023-04-24T01:45:46;1.13;;;1.03;;
359;SDS011;168;48.872;9.226;2023-04-24T01:48:13;1.07;;;0.97;;
359;SDS011;168;48.872;9.226;2023-04-24T01:50:41;1.40;;;0.93;;
359;SDS011;168;48.872;9.226;2023-04-24T01:53:08;1.30;;;1.20;;
359;SDS011;168;48.872;9.226;2023-04-24T01:55:36;1.10;;;0.90;;
359;SDS011;168;48.872;9.226;2023-04-24T01:58:05;1.13;;;0.80;;
359;SDS011;168;48.872;9.226;2023-04-24T02:00:33;1.10;;;1.00;;
359;SDS011;168;48.872;9.226;2023-04-24T02:03:00;1.33;;;1.10;;
359;SDS011;168;48.872;9.226;2023-04-24T02:05:28;1.53;;;1.20;;
359;SDS011;168;48.872;9.226;2023-04-24T02:07:56;0.90;;;0.90;;
359;SDS011;168;48.872;9.226;2023-04-24T02:10:23;1.37;;;1.27;;
359;SDS011;168;48.872;9.226;2023-04-24T02:12:50;2.60;;;0.97;;
359;SDS011;168;48.872;9.226;2023-04-24T02:15:19;1.43;;;0.70;;
359;SDS011;168;48.872;9.226;2023-04-24T02:17:47;1.57;;;1.27;;
359;SDS011;168;48.872;9.226;2023-04-24T02:20:14;1.23;;;1.00;;
359;SDS011;168;48.872;9.226;2023-04-24T02:22:43;2.10;;;1.27;;
359;SDS011;168;48.872;9.226;2023-04-24T02:25:10;2.70;;;1.50;;
359;SDS011;168;48.872;9.226;2023-04-24T02:27:37;2.37;;;1.10;;
359;SDS011;168;48.872;9.226;2023-04-24T02:30:05;1.70;;;1.00;;
359;SDS011;168;48.872;9.226;2023-04-24T02:32:35;1.47;;;0.90;;
359;SDS011;168;48.872;9.226;2023-04-24T02:35:02;1.17;;;1.10;;
359;SDS011;168;48.872;9.226;2023-04-24T02:37:30;2.30;;;0.97;;
359;SDS011;168;48.872;9.226;2023-04-24T02:39:57;1.00;;;0.93;;
359;SDS011;168;48.872;9.226;2023-04-24T02:42:25;1.60;;;1.47;;
359;SDS011;168;48.872;9.226;2023-04-24T02:44:52;1.00;;;0.90;;
359;SDS011;168;48.872;9.226;2023-04-24T02:47:19;1.57;;;1.23;;
359;SDS011;168;48.872;9.226;2023-04-24T02:49:48;1.30;;;1.20;;
359;SDS011;168;48.872;9.226;2023-04-24T02:52:15;0.90;;;0.90;;
359;SDS011;168;48.872;9.226;2023-04-24T02:54:43;1.33;;;1.20;;
359;SDS011;168;48.872;9.226;2023-04-24T02:57:10;1.43;;;1.33;;
359;SDS011;168;48.872;9.226;2023-04-24T02:59:37;2.30;;;1.30;;
359;SDS011;168;48.872;9.226;2023-04-24T03:02:05;1.50;;;1.40;;
359;SDS011;168;48.872;9.226;2023-04-24T03:04:32;0.97;;;0.97;;
359;SDS011;168;48.872;9.226;2023-04-24T03:07:01;1.00;;;1.00;;
359;SDS011;168;48.872;9.226;2023-04-24T03:09:28;2.93;;;1.43;;
359;SDS011;168;48.872;9.226;2023-04-24T03:11:55;5.83;;;1.30;;
359;SDS011;168;48.872;9.226;2023-04-24T03:14:23;1.90;;;1.10;;
359;SDS011;168;48.872;9.226;2023-04-24T03:16:51;1.10;;;1.00;;
359;SDS011;168;48.872;9.226;2023-04-24T03:19:18;1.20;;;1.10;;
359;SDS011;168;48.872;9.226;2023-04-24T03:21:45;1.93;;;1.40;;
359;SDS011;168;48.872;9.226;2023-04-24T03:24:14;1.30;;;1.10;;
359;SDS011;168;48.872;9.226;2023-04-24T03:26:41;1.57;;;1.30;;
359;SDS011;168;48.872;9.226;2023-04-24T03:29:09;2.00;;;1.10;;
359;SDS011;168;48.872;9.226;2023-04-24T03:31:36;1.00;;;1.00;;
359;SDS011;168;48.872;9.226;2023-04-24T03:34:03;1.20;;;1.10;;
359;SDS011;168;48.872;9.226;2023-04-24T03:36:31;2.67;;;1.30;;
359;SDS011;168;48.872;9.226;2023-04-24T03:38:58;1.27;;;1.17;;
359;SDS011;168;48.872;9.226;2023-04-24T03:41:27;1.40;;;1.30;;
359;SDS011;168;48.872;9.226;2023-04-24T03:43:55;1.70;;;1.60;;
359;SDS011;168;48.872;9.226;2023-04-24T03:46:22;2.30;;;1.63;;
359;SDS011;168;48.872;9.226;2023-04-24T03:48:50;1.20;;;1.17;;
359;SDS011;168;48.872;9.226;2023-04-24T03:51:18;1.47;;;1.37;;
359;SDS011;168;48.872;9.226;2023-04-24T03:53:45;1.83;;;1.10;;
359;SDS011;168;48.872;9.226;2023-04-24T03:56:13;1.97;;;1.10;;
359;SDS011;168;48.872;9.226;2023-04-24T03:58:42;1.20;;;1.20;;
359;SDS011;168;48.872;9.226;2023-04-24T04:01:09;1.67;;;1.07;;
359;SDS011;168;48.872;9.226;2023-04-24T04:03:37;3.07;;;1.40;;
359;SDS011;168;48.872;9.226;2023-04-24T04:06:04;1.67;;;1.30;;
359;SDS011;168;48.872;9.226;2023-04-24T04:08:32;2.50;;;1.30;;
359;SDS011;168;48.872;9.226;2023-04-24T04:11:00;1.47;;;0.90;;
359;SDS011;168;48.872;9.226;2023-04-24T04:13:28;1.07;;;1.07;;
359;SDS011;168;48.872;9.226;2023-04-24T04:15:58;1.60;;;1.50;;
359;SDS011;168;48.872;9.226;2023-04-24T04:18:26;1.93;;;1.50;;
359;SDS011;168;48.872;9.226;2023-04-24T04:20:54;1.00;;;1.00;;
359;SDS011;168;48.872;9.226;2023-04-24T04:23:22;1.20;;;1.10;;
359;SDS011;168;48.872;9.226;2023-04-24T04:25:50;1.00;;;0.90;;
359;SDS011;168;48.872;9.226;2023-04-24T04:28:17;1.50;;;1.40;;
359;SDS011;168;48.872;9.226;2023-04-24T04:30:45;1.30;;;1.20;;
359;SDS011;168;48.872;9.226;2023-04-24T04:33:14;2.37;;;1.60;;
359;SDS011;168;48.872;9.226;2023-04-24T04:35:42;1.67;;;1.23;;
359;SDS011;168;48.872;9.226;2023-04-24T04:38:09;2.30;;;1.80;;
359;SDS011;168;48.872;9.226;2023-04-24T04:40:37;1.90;;;1.80;;
359;SDS011;168;48.872;9.226;2023-04-24T04:43:04;2.70;;;1.70;;
359;SDS011;168;48.872;9.226;2023-04-24T04:45:47;4.80;;;2.00;;
359;SDS011;168;48.872;9.226;2023-04-24T04:48:31;1.80;;;1.70;;
359;SDS011;168;48.872;9.226;2023-04-24T04:50:59;2.73;;;1.83;;
359;SDS011;168;48.872;9.226;2023-04-24T04:53:27;1.97;;;1.87;;
359;SDS011;168;48.872;9.226;2023-04-24T04:55:56;2.10;;;1.93;;
359;SDS011;168;48.872;9.226;2023-04-24T04:58:25;1.77;;;1.67;;
359;SDS011;168;48.872;9.226;2023-04-24T05:00:52;2.03;;;1.80;;
359;SDS011;168;48.872;9.226;2023-04-24T05:03:19;2.27;;;2.07;;
359;SDS011;168;48.872;9.226;2023-04-24T05:05:48;2.10;;;1.93;;
359;SDS011;168;48.872;9.226;2023-04-24T05:08:19;1.80;;;1.70;;
359;SDS011;168;48.872;9.226;2023-04-24T05:10:47;4.70;;;2.07;;
359;SDS011;168;48.872;9.226;2023-04-24T05:15:23;2.70;;;2.50;;
359;SDS011;168;48.872;9.226;2023-04-24T05:16:49;2.00;;;1.90;;
359;SDS011;168;48.872;9.226;2023-04-24T05:19:24;1.90;;;1.80;;
359;SDS011;168;48.872;9.226;2023-04-24T05:21:53;2.17;;;1.77;;
359;SDS011;168;48.872;9.226;2023-04-24T05:24:28;2.67;;;2.30;;
359;SDS011;168;48.872;9.226;2023-04-24T05:26:56;2.40;;;2.20;;
359;SDS011;168;48.872;9.226;2023-04-24T05:29:24;2.43;;;2.13;;
359;SDS011;168;48.872;9.226;2023-04-24T05:31:51;2.60;;;2.40;;
359;SDS011;168;48.872;9.226;2023-04-24T05:34:19;1.70;;;1.60;;
359;SDS011;168;48.872;9.226;2023-04-24T05:36:47;2.70;;;2.07;;
359;SDS011;168;48.872;9.226;2023-04-24T05:39:16;2.40;;;2.20;;
359;SDS011;168;48.872;9.226;2023-04-24T05:41:46;2.60;;;2.47;;
359;SDS011;168;48.872;9.226;2023-04-24T05:44:17;2.27;;;2.10;;
359;SDS011;168;48.872;9.226;2023-04-24T05:46:45;2.07;;;1.97;;
359;SDS011;168;48.872;9.226;2023-04-24T05:49:12;1.97;;;1.80;;
359;SDS011;168;48.872;9.226;2023-04-24T05:51:40;2.80;;;2.60;;
359;SDS011;168;48.872;9.226;2023-04-24T05:54:08;2.63;;;2.43;;
359;SDS011;168;48.872;9.226;2023-04-24T05:56:39;2.30;;;2.13;;
359;SDS011;168;48.872;9.226;2023-04-24T05:59:07;2.70;;;2.50;;
359;SDS011;168;48.872;9.226;2023-04-24T06:01:34;2.80;;;2.60;;
359;SDS011;168;48.872;9.226;2023-04-24T06:04:02;3.00;;;2.80;;
359;SDS011;168;48.872;9.226;2023-04-24T06:06:30;3.20;;;3.00;;
359;SDS011;168;48.872;9.226;2023-04-24T06:08:58;3.47;;;3.10;;
359;SDS011;168;48.872;9.226;2023-04-24T06:11:25;2.90;;;2.70;;
359;SDS011;168;48.872;9.226;2023-04-24T06:17:41;3.20;;;2.90;;
359;SDS011;168;48.872;9.226;2023-04-24T06:20:26;2.57;;;2.47;;
359;SDS011;168;48.872;9.226;2023-04-24T06:22:53;2.63;;;2.40;;
359;SDS011;168;48.872;9.226;2023-04-24T06:25:21;2.80;;;2.60;;
359;SDS011;168;48.872;9.226;2023-04-24T06:27:51;2.70;;;2.50;;
359;SDS011;168;48.872;9.226;2023-04-24T06:30:20;2.80;;;2.60;;
359;SDS011;168;48.872;9.226;2023-04-24T06:32:47;1.90;;;1.80;;
359;SDS011;168;48.872;9.226;2023-04-24T06:35:15;2.20;;;2.10;;
359;SDS011;168;48.872;9.226;2023-04-24T06:37:43;4.30;;;2.60;;
359;SDS011;168;48.872;9.226;2023-04-24T06:40:11;2.60;;;2.40;;
359;SDS011;168;48.872;9.226;2023-04-24T06:42:39;2.20;;;2.10;;
359;SDS011;168;48.872;9.226;2023-04-24T06:45:28;2.60;;;2.40;;
359;SDS011;168;48.872;9.226;2023-04-24T06:48:05;2.90;;;2.40;;
359;SDS011;168;48.872;9.226;2023-04-24T06:50:38;2.07;;;1.97;;
359;SDS011;168;48.872;9.226;2023-04-24T06:53:06;2.67;;;2.47;;
359;SDS011;168;48.872;9.226;2023-04-24T06:55:36;2.20;;;2.10;;
359;SDS011;168;48.872;9.226;2023-04-24T06:58:04;2.50;;;2.30;;
359;SDS011;168;48.872;9.226;2023-04-24T07:00:40;2.80;;;2.60;;
359;SDS011;168;48.872;9.226;2023-04-24T07:03:08;2.03;;;1.93;;
359;SDS011;168;48.872;9.226;2023-04-24T07:05:35;2.20;;;2.10;;
359;SDS011;168;48.872;9.226;2023-04-24T07:10:48;2.60;;;2.40;;
359;SDS011;168;48.872;9.226;2023-04-24T07:13:23;2.37;;;2.17;;
359;SDS011;168;48.872;9.226;2023-04-24T07:15:56;2.37;;;2.17;;
359;SDS011;168;48.872;9.226;2023-04-24T07:18:24;2.93;;;2.73;;
359;SDS011;168;48.872;9.226;2023-04-24T07:20:51;2.57;;;2.37;;
359;SDS011;168;48.872;9.226;2023-04-24T07:23:19;3.10;;;2.80;;
359;SDS011;168;48.872;9.226;2023-04-24T07:25:47;2.17;;;2.07;;
359;SDS011;168;48.872;9.226;2023-04-24T07:28:14;3.90;;;2.00;;
359;SDS011;168;48.872;9.226;2023-04-24T07:30:43;2.47;;;2.27;;
359;SDS011;168;48.872;9.226;2023-04-24T07:33:13;2.60;;;2.10;;
359;SDS011;168;48.872;9.226;2023-04-24T07:35:40;2.27;;;2.17;;
359;SDS011;168;48.872;9.226;2023-04-24T07:38:08;2.90;;;2.10;;
359;SDS011;168;48.872;9.226;2023-04-24T07:40:35;2.40;;;2.20;;
359;SDS011;168;48.872;9.226;2023-04-24T07:43:05;1.83;;;1.73;;
359;SDS011;168;48.872;9.226;2023-04-24T07:45:33;2.00;;;1.90;;
359;SDS011;168;48.872;9.226;2023-04-24T07:48:05;1.90;;;1.80;;
359;SDS011;168;48.872;9.226;2023-04-24T07:50:36;1.97;;;1.87;;
359;SDS011;168;48.872;9.226;2023-04-24T07:53:06;2.07;;;1.97;;
359;SDS011;168;48.872;9.226;2023-04-24T07:55:33;2.43;;;2.20;;
359;SDS011;168;48.872;9.226;2023-04-24T07:58:01;2.07;;;1.97;;
359;SDS011;168;48.872;9.226;2023-04-24T08:00:28;1.77;;;1.67;;
359;SDS011;168;48.872;9.226;2023-04-24T08:02:56;1.93;;;1.83;;
359;SDS011;168;48.872;9.226;2023-04-24T08:05:24;1.87;;;1.77;;
359;SDS011;168;48.872;9.226;2023-04-24T08:07:55;2.40;;;2.20;;
359;SDS011;168;48.872;9.226;2023-04-24T08:10:23;2.43;;;2.23;;
359;SDS011;168;48.872;9.226;2023-04-24T08:12:51;2.40;;;2.30;;
359;SDS011;168;48.872;9.226;2023-04-24T08:15:18;1.93;;;1.83;;
359;SDS011;168;48.872;9.226;2023-04-24T08:17:46;2.43;;;2.00;;
359;SDS011;168;48.872;9.226;2023-04-24T08:20:14;1.93;;;1.83;;
359;SDS011;168;48.872;9.226;2023-04-24T08:22:41;2.13;;;2.03;;
359;SDS011;168;48.872;9.226;2023-04-24T08:25:10;2.17;;;2.07;;
359;SDS011;168;48.872;9.226;2023-04-24T08:27:37;2.27;;;1.90;;
359;SDS011;168;48.872;9.226;2023-04-24T08:30:05;2.63;;;1.90;;
359;SDS011;168;48.872;9.226;2023-04-24T08:32:34;2.50;;;1.97;;
359;SDS011;168;48.872;9.226;2023-04-24T08:35:03;1.60;;;1.50;;
359;SDS011;168;48.872;9.226;2023-04-24T08:37:31;2.10;;;1.90;;
359;SDS011;168;48.872;9.226;2023-04-24T08:40:00;2.60;;;2.40;;
359;SDS011;168;48.872;9.226;2023-04-24T08:42:29;2.60;;;2.00;;
359;SDS011;168;48.872;9.226;2023-04-24T08:44:58;1.90;;;1.80;;
359;SDS011;168;48.872;9.226;2023-04-24T08:47:27;5.07;;;2.40;;
359;SDS011;168;48.872;9.226;2023-04-24T08:49:56;1.70;;;1.60;;
359;SDS011;168;48.872;9.226;2023-04-24T08:52:25;1.70;;;1.60;;
359;SDS011;168;48.872;9.226;2023-04-24T08:54:54;1.60;;;1.50;;
359;SDS011;168;48.872;9.226;2023-04-24T08:57:23;2.10;;;1.67;;
359;SDS011;168;48.872;9.226;2023-04-24T09:00:20;2.10;;;2.00;;
359;SDS011;168;48.872;9.226;2023-04-24T09:03:04;1.73;;;1.23;;
359;SDS011;168;48.872;9.226;2023-04-24T09:05:33;2.53;;;1.30;;
359;SDS011;168;48.872;9.226;2023-04-24T09:08:09;1.80;;;1.70;;
359;SDS011;168;48.872;9.226;2023-04-24T09:10:58;2.00;;;1.80;;
359;SDS011;168;48.872;9.226;2023-04-24T09:13:30;3.30;;;1.93;;
359;SDS011;168;48.872;9.226;2023-04-24T09:16:07;1.90;;;1.80;;
359;SDS011;168;48.872;9.226;2023-04-24T09:18:35;1.87;;;1.60;;
359;SDS011;168;48.872;9.226;2023-04-24T09:21:14;1.50;;;1.40;;
359;SDS011;168;48.872;9.226;2023-04-24T09:23:45;1.60;;;1.50;;
359;SDS011;168;48.872;9.226;2023-04-24T09:26:29;2.43;;;1.60;;
359;SDS011;168;48.872;9.226;2023-04-24T09:28:58;1.43;;;1.43;;
359;SDS011;168;48.872;9.226;2023-04-24T09:31:28;1.43;;;1.30;;
359;SDS011;168;48.872;9.226;2023-04-24T09:33:57;2.10;;;1.40;;
359;SDS011;168;48.872;9.226;2023-04-24T09:36:28;1.30;;;1.20;;
359;SDS011;168;48.872;9.226;2023-04-24T09:38:58;1.60;;;1.43;;
359;SDS011;168;48.872;9.226;2023-04-24T09:41:26;2.20;;;1.37;;
359;SDS011;168;48.872;9.226;2023-04-24T09:43:54;1.67;;;1.57;;
359;SDS011;168;48.872;9.226;2023-04-24T09:46:30;1.50;;;1.40;;
359;SDS011;168;48.872;9.226;2023-04-24T09:49:02;3.60;;;1.53;;
359;SDS011;168;48.872;9.226;2023-04-24T09:51:36;1.90;;;1.60;;
359;SDS011;168;48.872;9.226;2023-04-24T09:54:04;1.60;;;1.33;;
359;SDS011;168;48.872;9.226;2023-04-24T09:56:42;1.50;;;1.40;;
359;SDS011;168;48.872;9.226;2023-04-24T09:59:11;2.70;;;1.70;;
359;SDS011;168;48.872;9.226;2023-04-24T10:01:41;1.80;;;1.70;;
359;SDS011;168;48.872;9.226;2023-04-24T10:04:16;1.53;;;1.43;;
359;SDS011;168;48.872;9.226;2023-04-24T10:06:45;1.27;;;1.23;;
359;SDS011;168;48.872;9.226;2023-04-24T10:09:14;2.23;;;1.80;;
359;SDS011;168;48.872;9.226;2023-04-24T10:11:42;3.17;;;1.60;;
359;SDS011;168;48.872;9.226;2023-04-24T10:14:12;2.03;;;1.80;;
359;SDS011;168;48.872;9.226;2023-04-24T10:16:42;2.67;;;2.17;;
359;SDS011;168;48.872;9.226;2023-04-24T10:19:12;3.93;;;1.63;;
359;SDS011;168;48.872;9.226;2023-04-24T10:21:42;1.33;;;1.23;;
359;SDS011;168;48.872;9.226;2023-04-24T10:24:12;3.67;;;1.77;;
359;SDS011;168;48.872;9.226;2023-04-24T10:26:40;2.47;;;1.73;;
359;SDS011;168;48.872;9.226;2023-04-24T10:29:08;1.63;;;1.40;;
359;SDS011;168;48.872;9.226;2023-04-24T10:31:38;1.70;;;1.57;;
359;SDS011;168;48.872;9.226;2023-04-24T10:34:08;3.00;;;1.90;;
359;SDS011;168;48.872;9.226;2023-04-24T10:36:37;1.63;;;1.37;;
359;SDS011;168;48.872;9.226;2023-04-24T10:39:08;2.60;;;2.33;;
359;SDS011;168;48.872;9.226;2023-04-24T10:41:38;1.67;;;1.57;;
359;SDS011;168;48.872;9.226;2023-04-24T10:44:06;2.10;;;1.80;;
359;SDS011;168;48.872;9.226;2023-04-24T10:46:35;2.23;;;2.03;;
359;SDS011;168;48.872;9.226;2023-04-24T10:49:04;1.57;;;1.47;;
359;SDS011;168;48.872;9.226;2023-04-24T10:51:48;1.70;;;1.60;;
359;SDS011;168;48.872;9.226;2023-04-24T10:54:22;1.77;;;1.67;;
359;SDS011;168;48.872;9.226;2023-04-24T10:56:50;2.13;;;2.03;;
359;SDS011;168;48.872;9.226;2023-04-24T10:59:24;1.70;;;1.60;;
359;SDS011;168;48.872;9.226;2023-04-24T11:01:53;2.60;;;2.40;;
359;SDS011;168;48.872;9.226;2023-04-24T11:04:31;2.13;;;1.93;;
359;SDS011;168;48.872;9.226;2023-04-24T11:07:02;1.67;;;1.57;;
359;SDS011;168;48.872;9.226;2023-04-24T11:09:30;1.83;;;1.70;;
359;SDS011;168;48.872;9.226;2023-04-24T11:12:05;1.50;;;1.40;;
359;SDS011;168;48.872;9.226;2023-04-24T11:17:28;3.70;;;1.93;;
359;SDS011;168;48.872;9.226;2023-04-24T11:20:00;1.90;;;1.80;;
359;SDS011;168;48.872;9.226;2023-04-24T11:22:30;1.83;;;1.73;;
359;SDS011;168;48.872;9.226;2023-04-24T11:25:03;3.80;;;1.70;;
359;SDS011;168;48.872;9.226;2023-04-24T11:27:39;2.10;;;2.00;;
359;SDS011;168;48.872;9.226;2023-04-24T11:30:08;1.73;;;1.60;;
359;SDS011;168;48.872;9.226;2023-04-24T11:32:37;2.80;;;2.60;;
359;SDS011;168;48.872;9.226;2023-04-24T11:36:16;2.00;;;1.90;;
359;SDS011;168;48.872;9.226;2023-04-24T11:38:47;2.00;;;1.90;;
359;SDS011;168;48.872;9.226;2023-04-24T11:41:27;2.83;;;2.60;;
359;SDS011;168;48.872;9.226;2023-04-24T11:44:01;2.40;;;2.20;;
359;SDS011;168;48.872;9.226;2023-04-24T11:46:55;1.70;;;1.60;;
359;SDS011;168;48.872;9.226;2023-04-24T11:49:27;2.60;;;1.90;;
359;SDS011;168;48.872;9.226;2023-04-24T11:51:57;2.03;;;1.93;;
359;SDS011;168;48.872;9.226;2023-04-24T11:54:26;1.83;;;1.73;;
359;SDS011;168;48.872;9.226;2023-04-24T11:56:55;2.30;;;1.93;;
359;SDS011;168;48.872;9.226;2023-04-24T11:59:23;3.00;;;2.10;;
359;SDS011;168;48.872;9.226;2023-04-24T12:01:50;4.30;;;2.07;;
359;SDS011;168;48.872;9.226;2023-04-24T12:04:18;1.60;;;1.50;;
359;SDS011;168;48.872;9.226;2023-04-24T12:07:01;1.63;;;1.53;;
359;SDS011;168;48.872;9.226;2023-04-24T12:09:41;2.93;;;1.80;;
359;SDS011;168;48.872;9.226;2023-04-24T12:12:09;1.80;;;1.70;;
359;SDS011;168;48.872;9.226;2023-04-24T12:14:44;1.70;;;1.60;;
359;SDS011;168;48.872;9.226;2023-04-24T12:17:14;1.83;;;1.73;;
359;SDS011;168;48.872;9.226;2023-04-24T12:19:45;2.00;;;1.90;;
359;SDS011;168;48.872;9.226;2023-04-24T12:22:13;1.80;;;1.70;;
359;SDS011;168;48.872;9.226;2023-04-24T12:24:58;2.43;;;2.23;;
359;SDS011;168;48.872;9.226;2023-04-24T12:27:30;2.90;;;2.13;;
359;SDS011;168;48.872;9.226;2023-04-24T12:30:00;2.40;;;2.13;;
359;SDS011;168;48.872;9.226;2023-04-24T12:32:28;2.13;;;2.03;;
359;SDS011;168;48.872;9.226;2023-04-24T12:34:56;2.10;;;2.00;;
359;SDS011;168;48.872;9.226;2023-04-24T12:37:25;3.70;;;1.70;;
359;SDS011;168;48.872;9.226;2023-04-24T12:40:00;2.20;;;1.80;;
359;SDS011;168;48.872;9.226;2023-04-24T12:42:29;1.70;;;1.60;;
359;SDS011;168;48.872;9.226;2023-04-24T12:44:57;2.33;;;1.80;;
359;SDS011;168;48.872;9.226;2023-04-24T12:47:26;3.07;;;1.93;;
359;SDS011;168;48.872;9.226;2023-04-24T12:49:54;2.10;;;1.67;;
359;SDS011;168;48.872;9.226;2023-04-24T12:52:22;2.00;;;1.80;;
359;SDS011;168;48.872;9.226;2023-04-24T12:54:52;2.00;;;1.80;;
359;SDS011;168;48.872;9.226;2023-04-24T12:57:22;1.93;;;1.83;;
359;SDS011;168;48.872;9.226;2023-04-24T12:59:49;2.77;;;1.93;;
359;SDS011;168;48.872;9.226;2023-04-24T13:02:17;3.20;;;2.90;;
359;SDS011;168;48.872;9.226;2023-04-24T13:04:44;1.97;;;1.87;;
359;SDS011;168;48.872;9.226;2023-04-24T13:07:12;2.17;;;2.03;;
359;SDS011;168;48.872;9.226;2023-04-24T13:09:40;3.77;;;2.03;;
359;SDS011;168;48.872;9.226;2023-04-24T13:12:08;1.87;;;1.77;;
359;SDS011;168;48.872;9.226;2023-04-24T13:14:38;2.13;;;2.03;;
359;SDS011;168;48.872;9.226;2023-04-24T13:17:05;1.83;;;1.73;;
359;SDS011;168;48.872;9.226;2023-04-24T13:19:38;1.80;;;1.60;;
359;SDS011;168;48.872;9.226;2023-04-24T13:22:08;2.20;;;2.10;;
359;SDS011;168;48.872;9.226;2023-04-24T13:24:36;2.40;;;1.90;;
359;SDS011;168;48.872;9.226;2023-04-24T13:27:05;2.80;;;2.23;;
359;SDS011;168;48.872;9.226;2023-04-24T13:29:32;3.20;;;2.67;;
359;SDS011;168;48.872;9.226;2023-04-24T13:32:02;3.30;;;2.23;;
359;SDS011;168;48.872;9.226;2023-04-24T13:34:29;2.87;;;2.67;;
359;SDS011;168;48.872;9.226;2023-04-24T13:36:57;2.20;;;2.10;;
359;SDS011;168;48.872;9.226;2023-04-24T13:39:25;3.47;;;3.17;;
359;SDS011;168;48.872;9.226;2023-04-24T13:41:53;2.67;;;2.50;;
359;SDS011;168;48.872;9.226;2023-04-24T13:44:21;2.90;;;2.70;;
359;SDS011;168;48.872;9.226;2023-04-24T13:46:50;3.63;;;3.33;;
359;SDS011;168;48.872;9.226;2023-04-24T13:49:21;2.60;;;2.40;;
359;SDS011;168;48.872;9.226;2023-04-24T13:51:55;2.93;;;2.73;;
359;SDS011;168;48.872;9.226;2023-04-24T13:54:23;2.80;;;2.60;;
359;SDS011;168;48.872;9.226;2023-04-24T13:56:51;3.70;;;3.40;;
359;SDS011;168;48.872;9.226;2023-04-24T13:59:23;3.00;;;2.80;;
359;SDS011;168;48.872;9.226;2023-04-24T14:01:50;2.87;;;2.67;;
359;SDS011;168;48.872;9.226;2023-04-24T14:04:18;2.30;;;2.10;;
359;SDS011;168;48.872;9.226;2023-04-24T14:06:47;2.97;;;2.77;;
359;SDS011;168;48.872;9.226;2023-04-24T14:09:14;2.60;;;2.20;;
359;SDS011;168;48.872;9.226;2023-04-24T14:11:42;2.60;;;2.40;;
359;SDS011;168;48.872;9.226;2023-04-24T14:14:09;2.87;;;2.60;;
359;SDS011;168;48.872;9.226;2023-04-24T14:16:37;3.03;;;2.60;;
359;SDS011;168;48.872;9.226;2023-04-24T14:19:04;2.10;;;2.00;;
359;SDS011;168;48.872;9.226;2023-04-24T14:21:32;2.20;;;2.10;;
359;SDS011;168;48.872;9.226;2023-04-24T14:24:01;1.90;;;1.80;;
359;SDS011;168;48.872;9.226;2023-04-24T14:26:29;2.13;;;2.03;;
359;SDS011;168;48.872;9.226;2023-04-24T14:28:57;2.30;;;2.20;;
359;SDS011;168;48.872;9.226;2023-04-24T14:31:25;2.50;;;2.30;;
359;SDS011;168;48.872;9.226;2023-04-24T14:33:52;2.07;;;1.87;;
359;SDS011;168;48.872;9.226;2023-04-24T14:36:20;2.07;;;1.97;;
359;SDS011;168;48.872;9.226;2023-04-24T14:38:47;2.20;;;2.10;;
359;SDS011;168;48.872;9.226;2023-04-24T14:41:16;3.13;;;2.57;;
359;SDS011;168;48.872;9.226;2023-04-24T14:43:43;2.40;;;2.20;;
359;SDS011;168;48.872;9.226;2023-04-24T14:46:11;3.00;;;2.80;;
359;SDS011;168;48.872;9.226;2023-04-24T14:48:39;2.60;;;2.40;;
359;SDS011;168;48.872;9.226;2023-04-24T14:51:06;2.40;;;2.20;;
359;SDS011;168;48.872;9.226;2023-04-24T14:53:34;2.80;;;2.53;;
359;SDS011;168;48.872;9.226;2023-04-24T14:56:01;2.73;;;2.53;;
359;SDS011;168;48.872;9.226;2023-04-24T14:58:30;2.00;;;1.80;;
359;SDS011;168;48.872;9.226;2023-04-24T15:00:57;2.80;;;2.60;;
359;SDS011;168;48.872;9.226;2023-04-24T15:03:25;2.20;;;2.00;;
359;SDS011;168;48.872;9.226;2023-04-24T15:05:53;3.50;;;2.30;;
359;SDS011;168;48.872;9.226;2023-04-24T15:08:20;2.00;;;1.90;;
359;SDS011;168;48.872;9.226;2023-04-24T15:10:48;1.90;;;1.80;;
359;SDS011;168;48.872;9.226;2023-04-24T15:13:16;2.23;;;2.13;;
359;SDS011;168;48.872;9.226;2023-04-24T15:15:46;2.30;;;2.20;;
359;SDS011;168;48.872;9.226;2023-04-24T15:18:13;2.47;;;2.33;;
359;SDS011;168;48.872;9.226;2023-04-24T15:20:41;2.77;;;2.67;;
359;SDS011;168;48.872;9.226;2023-04-24T15:23:08;2.40;;;2.20;;
359;SDS011;168;48.872;9.226;2023-04-24T15:25:36;3.00;;;2.80;;
359;SDS011;168;48.872;9.226;2023-04-24T15:28:04;2.33;;;2.10;;
359;SDS011;168;48.872;9.226;2023-04-24T15:30:32;3.47;;;2.60;;
359;SDS011;168;48.872;9.226;2023-04-24T15:33:01;3.43;;;3.17;;
359;SDS011;168;48.872;9.226;2023-04-24T15:35:29;2.20;;;2.00;;
359;SDS011;168;48.872;9.226;2023-04-24T15:37:57;2.30;;;2.20;;
359;SDS011;168;48.872;9.226;2023-04-24T15:40:25;2.10;;;1.87;;
359;SDS011;168;48.872;9.226;2023-04-24T15:42:53;2.17;;;1.73;;
359;SDS011;168;48.872;9.226;2023-04-24T15:45:20;2.00;;;1.90;;
359;SDS011;168;48.872;9.226;2023-04-24T15:47:48;2.33;;;1.77;;
359;SDS011;168;48.872;9.226;2023-04-24T15:50:18;3.53;;;1.90;;
359;SDS011;168;48.872;9.226;2023-04-24T15:52:47;1.90;;;1.80;;
359;SDS011;168;48.872;9.226;2023-04-24T15:55:14;2.47;;;1.90;;
359;SDS011;168;48.872;9.226;2023-04-24T15:57:42;2.53;;;2.33;;
359;SDS011;168;48.872;9.226;2023-04-24T16:00:10;2.27;;;1.67;;
359;SDS011;168;48.872;9.226;2023-04-24T16:02:38;1.60;;;1.50;;
359;SDS011;168;48.872;9.226;2023-04-24T16:05:06;2.87;;;1.70;;
359;SDS011;168;48.872;9.226;2023-04-24T16:07:36;1.77;;;1.67;;
359;SDS011;168;48.872;9.226;2023-04-24T16:10:04;2.00;;;1.80;;